<?xml version="1.0" encoding="utf-8"?>
<gpx xmlns:xsi="http://www.w3.org/2001/XMLSchema-instance" xmlns:xsd="http://www.w3.org/2001/XMLSchema" version="1.1" creator="Shapelink.com" xmlns="http://www.topografix.com/GPX/1/1" xmlns:gpxtpx="http://www.garmin.com/xmlschemas/TrackPointExtension/v1">
  <metadata>
    <name>Löpning 7.01 km, 2019-08-05</name>
    <desc></desc>
    <author><name>Bengt Norberg</name></author> 
    <time>2019-08-05T16:58:43Z</time>
  </metadata>
  <trk>
    <name>Löpning 7.01 km, 2019-08-05</name>
    <trkseg>
      <trkpt lat="59.364553784258" lon="18.065306563296">
        <ele>20.4</ele>
        <time>2019-08-05T17:03:32Z</time>
      </trkpt>
      <trkpt lat="59.364543977435" lon="18.065705290279">
        <ele>12.2</ele>
        <time>2019-08-05T17:03:39Z</time>
      </trkpt>
      <trkpt lat="59.364554622448" lon="18.066080799399">
        <ele>11.8</ele>
        <time>2019-08-05T17:03:46Z</time>
      </trkpt>
      <trkpt lat="59.364574822827" lon="18.066482124771">
        <ele>11</ele>
        <time>2019-08-05T17:03:53Z</time>
      </trkpt>
      <trkpt lat="59.364587228039" lon="18.066870122922">
        <ele>11.2</ele>
        <time>2019-08-05T17:04:00Z</time>
      </trkpt>
      <trkpt lat="59.364599297975" lon="18.067245380585">
        <ele>13</ele>
        <time>2019-08-05T17:04:07Z</time>
      </trkpt>
      <trkpt lat="59.364608266608" lon="18.067647795604">
        <ele>15.4</ele>
        <time>2019-08-05T17:04:15Z</time>
      </trkpt>
      <trkpt lat="59.364623270209" lon="18.068028082407">
        <ele>17</ele>
        <time>2019-08-05T17:04:22Z</time>
      </trkpt>
      <trkpt lat="59.364640034009" lon="18.068415158549">
        <ele>18.8</ele>
        <time>2019-08-05T17:04:29Z</time>
      </trkpt>
      <trkpt lat="59.364638944362" lon="18.06881824412">
        <ele>24.4</ele>
        <time>2019-08-05T17:04:37Z</time>
      </trkpt>
      <trkpt lat="59.364651433393" lon="18.069305567786">
        <ele>32.2</ele>
        <time>2019-08-05T17:04:47Z</time>
      </trkpt>
      <trkpt lat="59.36461899544" lon="18.069704881502">
        <ele>35.2</ele>
        <time>2019-08-05T17:04:55Z</time>
      </trkpt>
      <trkpt lat="59.364594017378" lon="18.070094304576">
        <ele>36</ele>
        <time>2019-08-05T17:05:03Z</time>
      </trkpt>
      <trkpt lat="59.364550180041" lon="18.070462353805">
        <ele>34</ele>
        <time>2019-08-05T17:05:10Z</time>
      </trkpt>
      <trkpt lat="59.364612709015" lon="18.070825122437">
        <ele>32.8</ele>
        <time>2019-08-05T17:05:18Z</time>
      </trkpt>
      <trkpt lat="59.364650511384" lon="18.070857895666">
        <ele>32.8</ele>
        <time>2019-08-05T17:05:20Z</time>
      </trkpt>
      <trkpt lat="59.364854443011" lon="18.070832666147">
        <ele>31.6</ele>
        <time>2019-08-05T17:05:28Z</time>
      </trkpt>
      <trkpt lat="59.365055440973" lon="18.070841886237">
        <ele>28</ele>
        <time>2019-08-05T17:05:36Z</time>
      </trkpt>
      <trkpt lat="59.365226264095" lon="18.070961412131">
        <ele>25</ele>
        <time>2019-08-05T17:05:44Z</time>
      </trkpt>
      <trkpt lat="59.365357189373" lon="18.071249665672">
        <ele>26</ele>
        <time>2019-08-05T17:05:51Z</time>
      </trkpt>
      <trkpt lat="59.365481660588" lon="18.07150883402">
        <ele>27.6</ele>
        <time>2019-08-05T17:05:57Z</time>
      </trkpt>
      <trkpt lat="59.36561476516" lon="18.071795411181">
        <ele>28.4</ele>
        <time>2019-08-05T17:06:04Z</time>
      </trkpt>
      <trkpt lat="59.365761699867" lon="18.072071510967">
        <ele>24.4</ele>
        <time>2019-08-05T17:06:12Z</time>
      </trkpt>
      <trkpt lat="59.365878124458" lon="18.072363955458">
        <ele>23.2</ele>
        <time>2019-08-05T17:06:19Z</time>
      </trkpt>
      <trkpt lat="59.366008965917" lon="18.072631002792">
        <ele>21.8</ele>
        <time>2019-08-05T17:06:26Z</time>
      </trkpt>
      <trkpt lat="59.366132598942" lon="18.072944485852">
        <ele>22</ele>
        <time>2019-08-05T17:06:34Z</time>
      </trkpt>
      <trkpt lat="59.366264194772" lon="18.073236008334">
        <ele>23</ele>
        <time>2019-08-05T17:06:41Z</time>
      </trkpt>
      <trkpt lat="59.366406603253" lon="18.073505151143">
        <ele>23.2</ele>
        <time>2019-08-05T17:06:48Z</time>
      </trkpt>
      <trkpt lat="59.366528476079" lon="18.073781586205">
        <ele>23.6</ele>
        <time>2019-08-05T17:06:55Z</time>
      </trkpt>
      <trkpt lat="59.366632244001" lon="18.074084256614">
        <ele>24.8</ele>
        <time>2019-08-05T17:07:02Z</time>
      </trkpt>
      <trkpt lat="59.366753194818" lon="18.074397823493">
        <ele>26</ele>
        <time>2019-08-05T17:07:10Z</time>
      </trkpt>
      <trkpt lat="59.366919407895" lon="18.074575855049">
        <ele>25.8</ele>
        <time>2019-08-05T17:07:18Z</time>
      </trkpt>
      <trkpt lat="59.367108252102" lon="18.074641652964">
        <ele>24.2</ele>
        <time>2019-08-05T17:07:25Z</time>
      </trkpt>
      <trkpt lat="59.367266502374" lon="18.074836280682">
        <ele>21.8</ele>
        <time>2019-08-05T17:07:31Z</time>
      </trkpt>
      <trkpt lat="59.367417628031" lon="18.075110284993">
        <ele>22.2</ele>
        <time>2019-08-05T17:07:38Z</time>
      </trkpt>
      <trkpt lat="59.367548553309" lon="18.075397867982">
        <ele>22.2</ele>
        <time>2019-08-05T17:07:45Z</time>
      </trkpt>
      <trkpt lat="59.367619548002" lon="18.075729036851">
        <ele>24.8</ele>
        <time>2019-08-05T17:07:51Z</time>
      </trkpt>
      <trkpt lat="59.367649639023" lon="18.076075041683">
        <ele>27</ele>
        <time>2019-08-05T17:07:58Z</time>
      </trkpt>
      <trkpt lat="59.367616698156" lon="18.076431607709">
        <ele>30.8</ele>
        <time>2019-08-05T17:08:05Z</time>
      </trkpt>
      <trkpt lat="59.367513181691" lon="18.076708378047">
        <ele>36</ele>
        <time>2019-08-05T17:08:12Z</time>
      </trkpt>
      <trkpt lat="59.367380496214" lon="18.076945921093">
        <ele>37.8</ele>
        <time>2019-08-05T17:08:18Z</time>
      </trkpt>
      <trkpt lat="59.367240769941" lon="18.077177010076">
        <ele>39.6</ele>
        <time>2019-08-05T17:08:24Z</time>
      </trkpt>
      <trkpt lat="59.367085201877" lon="18.077391167621">
        <ele>40.4</ele>
        <time>2019-08-05T17:08:30Z</time>
      </trkpt>
      <trkpt lat="59.366918737343" lon="18.07761588636">
        <ele>43.6</ele>
        <time>2019-08-05T17:08:37Z</time>
      </trkpt>
      <trkpt lat="59.366734084086" lon="18.077829708629">
        <ele>46.2</ele>
        <time>2019-08-05T17:08:44Z</time>
      </trkpt>
      <trkpt lat="59.36656946357" lon="18.078009584203">
        <ele>44</ele>
        <time>2019-08-05T17:08:50Z</time>
      </trkpt>
      <trkpt lat="59.366393695127" lon="18.078091475366">
        <ele>42.8</ele>
        <time>2019-08-05T17:08:57Z</time>
      </trkpt>
      <trkpt lat="59.366233181742" lon="18.078249138905">
        <ele>40.6</ele>
        <time>2019-08-05T17:09:04Z</time>
      </trkpt>
      <trkpt lat="59.366078032773" lon="18.078511660013">
        <ele>40.4</ele>
        <time>2019-08-05T17:09:11Z</time>
      </trkpt>
      <trkpt lat="59.365922967623" lon="18.078698241107">
        <ele>37.8</ele>
        <time>2019-08-05T17:09:19Z</time>
      </trkpt>
      <trkpt lat="59.365768740663" lon="18.078965456079">
        <ele>37.8</ele>
        <time>2019-08-05T17:09:27Z</time>
      </trkpt>
      <trkpt lat="59.365736637986" lon="18.079338534448">
        <ele>38.4</ele>
        <time>2019-08-05T17:09:33Z</time>
      </trkpt>
      <trkpt lat="59.365714928865" lon="18.079718150699">
        <ele>38</ele>
        <time>2019-08-05T17:09:40Z</time>
      </trkpt>
      <trkpt lat="59.365612418228" lon="18.080007410068">
        <ele>37.4</ele>
        <time>2019-08-05T17:09:48Z</time>
      </trkpt>
      <trkpt lat="59.365584171225" lon="18.080375375478">
        <ele>38.4</ele>
        <time>2019-08-05T17:09:56Z</time>
      </trkpt>
      <trkpt lat="59.36556279738" lon="18.08045232132">
        <ele>39.4</ele>
        <time>2019-08-05T17:09:58Z</time>
      </trkpt>
      <trkpt lat="59.365460705838" lon="18.080753985901">
        <ele>42.4</ele>
        <time>2019-08-05T17:10:09Z</time>
      </trkpt>
      <trkpt lat="59.3653264278" lon="18.080989852567">
        <ele>42.4</ele>
        <time>2019-08-05T17:10:15Z</time>
      </trkpt>
      <trkpt lat="59.365165830596" lon="18.081303754722">
        <ele>41.6</ele>
        <time>2019-08-05T17:10:23Z</time>
      </trkpt>
      <trkpt lat="59.365024427943" lon="18.081529646927">
        <ele>37.6</ele>
        <time>2019-08-05T17:10:29Z</time>
      </trkpt>
      <trkpt lat="59.364900292004" lon="18.081834831906">
        <ele>35.8</ele>
        <time>2019-08-05T17:10:36Z</time>
      </trkpt>
      <trkpt lat="59.364915630881" lon="18.081976737473">
        <ele>36</ele>
        <time>2019-08-05T17:10:40Z</time>
      </trkpt>
      <trkpt lat="59.365044376865" lon="18.082234732355">
        <ele>31</ele>
        <time>2019-08-05T17:10:50Z</time>
      </trkpt>
      <trkpt lat="59.365159544171" lon="18.082521644792">
        <ele>29</ele>
        <time>2019-08-05T17:11:01Z</time>
      </trkpt>
      <trkpt lat="59.365301952652" lon="18.08271040518">
        <ele>27.6</ele>
        <time>2019-08-05T17:11:11Z</time>
      </trkpt>
      <trkpt lat="59.365487025004" lon="18.082587945621">
        <ele>26.2</ele>
        <time>2019-08-05T17:11:21Z</time>
      </trkpt>
      <trkpt lat="59.365672851727" lon="18.082426342589">
        <ele>24.8</ele>
        <time>2019-08-05T17:11:30Z</time>
      </trkpt>
      <trkpt lat="59.3658293418" lon="18.082205563343">
        <ele>23.2</ele>
        <time>2019-08-05T17:11:38Z</time>
      </trkpt>
      <trkpt lat="59.365940737251" lon="18.081897863794">
        <ele>22</ele>
        <time>2019-08-05T17:11:48Z</time>
      </trkpt>
      <trkpt lat="59.366004188234" lon="18.081552278057">
        <ele>22</ele>
        <time>2019-08-05T17:11:57Z</time>
      </trkpt>
      <trkpt lat="59.366057916213" lon="18.081166207743">
        <ele>20.6</ele>
        <time>2019-08-05T17:12:05Z</time>
      </trkpt>
      <trkpt lat="59.366159001927" lon="18.080833530132">
        <ele>20.2</ele>
        <time>2019-08-05T17:12:13Z</time>
      </trkpt>
      <trkpt lat="59.36629956639" lon="18.080609146669">
        <ele>19.2</ele>
        <time>2019-08-05T17:12:20Z</time>
      </trkpt>
      <trkpt lat="59.366405262149" lon="18.080289125727">
        <ele>18.8</ele>
        <time>2019-08-05T17:12:28Z</time>
      </trkpt>
      <trkpt lat="59.366569882665" lon="18.080064658445">
        <ele>18.6</ele>
        <time>2019-08-05T17:12:35Z</time>
      </trkpt>
      <trkpt lat="59.366730647507" lon="18.079844885027">
        <ele>18.2</ele>
        <time>2019-08-05T17:12:43Z</time>
      </trkpt>
      <trkpt lat="59.36690725414" lon="18.079629051102">
        <ele>18.2</ele>
        <time>2019-08-05T17:12:50Z</time>
      </trkpt>
      <trkpt lat="59.367073299579" lon="18.07939620192">
        <ele>14.6</ele>
        <time>2019-08-05T17:12:58Z</time>
      </trkpt>
      <trkpt lat="59.367192154921" lon="18.079106691094">
        <ele>11.8</ele>
        <time>2019-08-05T17:13:06Z</time>
      </trkpt>
      <trkpt lat="59.36728527783" lon="18.07873738458">
        <ele>8.6</ele>
        <time>2019-08-05T17:13:13Z</time>
      </trkpt>
      <trkpt lat="59.367368593916" lon="18.07838031564">
        <ele>2.4</ele>
        <time>2019-08-05T17:13:20Z</time>
      </trkpt>
      <trkpt lat="59.367444450111" lon="18.078047638029">
        <ele>0</ele>
        <time>2019-08-05T17:13:27Z</time>
      </trkpt>
      <trkpt lat="59.367563053996" lon="18.077738429738">
        <ele>0.6</ele>
        <time>2019-08-05T17:13:34Z</time>
      </trkpt>
      <trkpt lat="59.367717448594" lon="18.077543299106">
        <ele>0</ele>
        <time>2019-08-05T17:13:40Z</time>
      </trkpt>
      <trkpt lat="59.367843177094" lon="18.077270803537">
        <ele>0</ele>
        <time>2019-08-05T17:13:46Z</time>
      </trkpt>
      <trkpt lat="59.367963541178" lon="18.077066955729">
        <ele>0</ele>
        <time>2019-08-05T17:13:50Z</time>
      </trkpt>
      <trkpt lat="59.368089018221" lon="18.076747605339">
        <ele>0</ele>
        <time>2019-08-05T17:13:58Z</time>
      </trkpt>
      <trkpt lat="59.368229163589" lon="18.076484246041">
        <ele>0</ele>
        <time>2019-08-05T17:14:05Z</time>
      </trkpt>
      <trkpt lat="59.368414738855" lon="18.076362457034">
        <ele>0</ele>
        <time>2019-08-05T17:14:12Z</time>
      </trkpt>
      <trkpt lat="59.368622526156" lon="18.076375281341">
        <ele>0</ele>
        <time>2019-08-05T17:14:20Z</time>
      </trkpt>
      <trkpt lat="59.368771807795" lon="18.076370755115">
        <ele>0</ele>
        <time>2019-08-05T17:14:28Z</time>
      </trkpt>
      <trkpt lat="59.368896698105" lon="18.076279308586">
        <ele>0</ele>
        <time>2019-08-05T17:14:34Z</time>
      </trkpt>
      <trkpt lat="59.369029299763" lon="18.076026091387">
        <ele>0</ele>
        <time>2019-08-05T17:14:41Z</time>
      </trkpt>
      <trkpt lat="59.36919216008" lon="18.075779663527">
        <ele>2.8</ele>
        <time>2019-08-05T17:14:48Z</time>
      </trkpt>
      <trkpt lat="59.369379663183" lon="18.075672207569">
        <ele>7.2</ele>
        <time>2019-08-05T17:14:55Z</time>
      </trkpt>
      <trkpt lat="59.369543780785" lon="18.075522003921">
        <ele>7.4</ele>
        <time>2019-08-05T17:15:01Z</time>
      </trkpt>
      <trkpt lat="59.369711502604" lon="18.075294435336">
        <ele>9</ele>
        <time>2019-08-05T17:15:08Z</time>
      </trkpt>
      <trkpt lat="59.369787694075" lon="18.075197205296">
        <ele>9.2</ele>
        <time>2019-08-05T17:15:11Z</time>
      </trkpt>
      <trkpt lat="59.369873692369" lon="18.075087402406">
        <ele>10.8</ele>
        <time>2019-08-05T17:15:15Z</time>
      </trkpt>
      <trkpt lat="59.37002364456" lon="18.074879447467">
        <ele>12.2</ele>
        <time>2019-08-05T17:15:22Z</time>
      </trkpt>
      <trkpt lat="59.370184996135" lon="18.074664284094">
        <ele>12.2</ele>
        <time>2019-08-05T17:15:28Z</time>
      </trkpt>
      <trkpt lat="59.370333020489" lon="18.074455826241">
        <ele>12.4</ele>
        <time>2019-08-05T17:15:34Z</time>
      </trkpt>
      <trkpt lat="59.370489175286" lon="18.074215517168">
        <ele>11.2</ele>
        <time>2019-08-05T17:15:41Z</time>
      </trkpt>
      <trkpt lat="59.370657986752" lon="18.073982835624">
        <ele>10.2</ele>
        <time>2019-08-05T17:15:48Z</time>
      </trkpt>
      <trkpt lat="59.370755049154" lon="18.073684607622">
        <ele>9</ele>
        <time>2019-08-05T17:15:56Z</time>
      </trkpt>
      <trkpt lat="59.37070006389" lon="18.073292167064">
        <ele>6.6</ele>
        <time>2019-08-05T17:16:02Z</time>
      </trkpt>
      <trkpt lat="59.370660920417" lon="18.072670481541">
        <ele>0</ele>
        <time>2019-08-05T17:16:13Z</time>
      </trkpt>
      <trkpt lat="59.370578693978" lon="18.072299498647">
        <ele>0</ele>
        <time>2019-08-05T17:16:20Z</time>
      </trkpt>
      <trkpt lat="59.370509878579" lon="18.071939412223">
        <ele>0</ele>
        <time>2019-08-05T17:16:27Z</time>
      </trkpt>
      <trkpt lat="59.370536030107" lon="18.071545882018">
        <ele>0</ele>
        <time>2019-08-05T17:16:35Z</time>
      </trkpt>
      <trkpt lat="59.370573832476" lon="18.071269782232">
        <ele>0.6</ele>
        <time>2019-08-05T17:16:40Z</time>
      </trkpt>
      <trkpt lat="59.370653628164" lon="18.071019079603">
        <ele>0.2</ele>
        <time>2019-08-05T17:16:45Z</time>
      </trkpt>
      <trkpt lat="59.370701153537" lon="18.070652036202">
        <ele>1.6</ele>
        <time>2019-08-05T17:16:53Z</time>
      </trkpt>
      <trkpt lat="59.370807184572" lon="18.070327991948">
        <ele>3.4</ele>
        <time>2019-08-05T17:17:01Z</time>
      </trkpt>
      <trkpt lat="59.370936265832" lon="18.070029596308">
        <ele>5.6</ele>
        <time>2019-08-05T17:17:09Z</time>
      </trkpt>
      <trkpt lat="59.370897122359" lon="18.069766320829">
        <ele>4.4</ele>
        <time>2019-08-05T17:17:14Z</time>
      </trkpt>
      <trkpt lat="59.37080316126" lon="18.069449149733">
        <ele>5.4</ele>
        <time>2019-08-05T17:17:20Z</time>
      </trkpt>
      <trkpt lat="59.37070090208" lon="18.069119405787">
        <ele>9.6</ele>
        <time>2019-08-05T17:17:27Z</time>
      </trkpt>
      <trkpt lat="59.370571234087" lon="18.068845150019">
        <ele>12.2</ele>
        <time>2019-08-05T17:17:35Z</time>
      </trkpt>
      <trkpt lat="59.370440476447" lon="18.068551783519">
        <ele>12</ele>
        <time>2019-08-05T17:17:42Z</time>
      </trkpt>
      <trkpt lat="59.370303851477" lon="18.068329076436">
        <ele>12</ele>
        <time>2019-08-05T17:17:50Z</time>
      </trkpt>
      <trkpt lat="59.37028096889" lon="18.068332848291">
        <ele>11.8</ele>
        <time>2019-08-05T17:17:51Z</time>
      </trkpt>
      <trkpt lat="59.370191953112" lon="18.068360340923">
        <ele>12.2</ele>
        <time>2019-08-05T17:17:55Z</time>
      </trkpt>
      <trkpt lat="59.370077204901" lon="18.068671309413">
        <ele>15</ele>
        <time>2019-08-05T17:18:03Z</time>
      </trkpt>
      <trkpt lat="59.370057507436" lon="18.069028545991">
        <ele>15.4</ele>
        <time>2019-08-05T17:18:11Z</time>
      </trkpt>
      <trkpt lat="59.370036971781" lon="18.069394248288">
        <ele>16</ele>
        <time>2019-08-05T17:18:18Z</time>
      </trkpt>
      <trkpt lat="59.369957595188" lon="18.06970337276">
        <ele>19.2</ele>
        <time>2019-08-05T17:18:25Z</time>
      </trkpt>
      <trkpt lat="59.369803703504" lon="18.069933455915">
        <ele>21.6</ele>
        <time>2019-08-05T17:18:35Z</time>
      </trkpt>
      <trkpt lat="59.369632461287" lon="18.070084162477">
        <ele>19.8</ele>
        <time>2019-08-05T17:18:43Z</time>
      </trkpt>
      <trkpt lat="59.369448310944" lon="18.070254566504">
        <ele>18.8</ele>
        <time>2019-08-05T17:18:50Z</time>
      </trkpt>
      <trkpt lat="59.369302130608" lon="18.070471070981">
        <ele>18.4</ele>
        <time>2019-08-05T17:18:57Z</time>
      </trkpt>
      <trkpt lat="59.369136085169" lon="18.070722360343">
        <ele>18</ele>
        <time>2019-08-05T17:19:05Z</time>
      </trkpt>
      <trkpt lat="59.368978505449" lon="18.070965100167">
        <ele>17.2</ele>
        <time>2019-08-05T17:19:12Z</time>
      </trkpt>
      <trkpt lat="59.368811370363" lon="18.071167523052">
        <ele>16.8</ele>
        <time>2019-08-05T17:19:19Z</time>
      </trkpt>
      <trkpt lat="59.368638787042" lon="18.071366174082">
        <ele>17.2</ele>
        <time>2019-08-05T17:19:26Z</time>
      </trkpt>
      <trkpt lat="59.368514734922" lon="18.07169575039">
        <ele>18.6</ele>
        <time>2019-08-05T17:19:34Z</time>
      </trkpt>
      <trkpt lat="59.368438124356" lon="18.072029098553">
        <ele>18.8</ele>
        <time>2019-08-05T17:19:41Z</time>
      </trkpt>
      <trkpt lat="59.368355143546" lon="18.072350125323">
        <ele>21</ele>
        <time>2019-08-05T17:19:47Z</time>
      </trkpt>
      <trkpt lat="59.368288758898" lon="18.072683054391">
        <ele>20.2</ele>
        <time>2019-08-05T17:19:54Z</time>
      </trkpt>
      <trkpt lat="59.368222541888" lon="18.073019336219">
        <ele>21.2</ele>
        <time>2019-08-05T17:20:00Z</time>
      </trkpt>
      <trkpt lat="59.368217764205" lon="18.073071890732">
        <ele>21.2</ele>
        <time>2019-08-05T17:20:01Z</time>
      </trkpt>
      <trkpt lat="59.368175016515" lon="18.073420493953">
        <ele>22.2</ele>
        <time>2019-08-05T17:20:08Z</time>
      </trkpt>
      <trkpt lat="59.368064543073" lon="18.073764068034">
        <ele>24.8</ele>
        <time>2019-08-05T17:20:15Z</time>
      </trkpt>
      <trkpt lat="59.36789631834" lon="18.073949056567">
        <ele>28.2</ele>
        <time>2019-08-05T17:20:22Z</time>
      </trkpt>
      <trkpt lat="59.367732619833" lon="18.074062882769">
        <ele>30.6</ele>
        <time>2019-08-05T17:20:29Z</time>
      </trkpt>
      <trkpt lat="59.367627510807" lon="18.074272262631">
        <ele>33</ele>
        <time>2019-08-05T17:20:34Z</time>
      </trkpt>
      <trkpt lat="59.36747051782" lon="18.074483905606">
        <ele>36.6</ele>
        <time>2019-08-05T17:20:41Z</time>
      </trkpt>
      <trkpt lat="59.367359625283" lon="18.07468641231">
        <ele>38.8</ele>
        <time>2019-08-05T17:20:46Z</time>
      </trkpt>
      <trkpt lat="59.367278739948" lon="18.074885566254">
        <ele>35</ele>
        <time>2019-08-05T17:20:56Z</time>
      </trkpt>
      <trkpt lat="59.367118729477" lon="18.074674845288">
        <ele>34.8</ele>
        <time>2019-08-05T17:21:04Z</time>
      </trkpt>
      <trkpt lat="59.366945224147" lon="18.074563785113">
        <ele>34.2</ele>
        <time>2019-08-05T17:21:10Z</time>
      </trkpt>
      <trkpt lat="59.366796864517" lon="18.074430261446">
        <ele>31.6</ele>
        <time>2019-08-05T17:21:16Z</time>
      </trkpt>
      <trkpt lat="59.366865512278" lon="18.074555906127">
        <ele>32</ele>
        <time>2019-08-05T17:21:22Z</time>
      </trkpt>
      <trkpt lat="59.367051087544" lon="18.074647352656">
        <ele>31.8</ele>
        <time>2019-08-05T17:21:29Z</time>
      </trkpt>
      <trkpt lat="59.367220569562" lon="18.07486829954">
        <ele>28.8</ele>
        <time>2019-08-05T17:21:36Z</time>
      </trkpt>
      <trkpt lat="59.367374293608" lon="18.075104082387">
        <ele>26.8</ele>
        <time>2019-08-05T17:21:42Z</time>
      </trkpt>
      <trkpt lat="59.367503458687" lon="18.075402645665">
        <ele>24</ele>
        <time>2019-08-05T17:21:49Z</time>
      </trkpt>
      <trkpt lat="59.367612674844" lon="18.075855184446">
        <ele>23.2</ele>
        <time>2019-08-05T17:21:58Z</time>
      </trkpt>
      <trkpt lat="59.367626588798" lon="18.07621778544">
        <ele>22.6</ele>
        <time>2019-08-05T17:22:04Z</time>
      </trkpt>
      <trkpt lat="59.367546709291" lon="18.07656898705">
        <ele>22.8</ele>
        <time>2019-08-05T17:22:11Z</time>
      </trkpt>
      <trkpt lat="59.367413437081" lon="18.076840644429">
        <ele>25</ele>
        <time>2019-08-05T17:22:18Z</time>
      </trkpt>
      <trkpt lat="59.36727019041" lon="18.077055556345">
        <ele>25.4</ele>
        <time>2019-08-05T17:22:24Z</time>
      </trkpt>
      <trkpt lat="59.367133900716" lon="18.077295949237">
        <ele>26.8</ele>
        <time>2019-08-05T17:22:30Z</time>
      </trkpt>
      <trkpt lat="59.366982523602" lon="18.0775538603">
        <ele>28.2</ele>
        <time>2019-08-05T17:22:37Z</time>
      </trkpt>
      <trkpt lat="59.366836762361" lon="18.07779609721">
        <ele>29.8</ele>
        <time>2019-08-05T17:22:43Z</time>
      </trkpt>
      <trkpt lat="59.366690582025" lon="18.078025677451">
        <ele>28.6</ele>
        <time>2019-08-05T17:22:49Z</time>
      </trkpt>
      <trkpt lat="59.366524871862" lon="18.078189459777">
        <ele>26.8</ele>
        <time>2019-08-05T17:22:56Z</time>
      </trkpt>
      <trkpt lat="59.366335440922" lon="18.078300771409">
        <ele>25.4</ele>
        <time>2019-08-05T17:23:03Z</time>
      </trkpt>
      <trkpt lat="59.36617886703" lon="18.078497913697">
        <ele>22.2</ele>
        <time>2019-08-05T17:23:09Z</time>
      </trkpt>
      <trkpt lat="59.36601709636" lon="18.078688601922">
        <ele>24.2</ele>
        <time>2019-08-05T17:23:15Z</time>
      </trkpt>
      <trkpt lat="59.365840489727" lon="18.078865879107">
        <ele>26.2</ele>
        <time>2019-08-05T17:23:23Z</time>
      </trkpt>
      <trkpt lat="59.365718197806" lon="18.079144325825">
        <ele>26.4</ele>
        <time>2019-08-05T17:23:32Z</time>
      </trkpt>
      <trkpt lat="59.365712498114" lon="18.079535676736">
        <ele>28</ele>
        <time>2019-08-05T17:23:39Z</time>
      </trkpt>
      <trkpt lat="59.365612837323" lon="18.07985636823">
        <ele>30.4</ele>
        <time>2019-08-05T17:23:46Z</time>
      </trkpt>
      <trkpt lat="59.365556510955" lon="18.080197427741">
        <ele>33.8</ele>
        <time>2019-08-05T17:23:53Z</time>
      </trkpt>
      <trkpt lat="59.365507644478" lon="18.080564387323">
        <ele>38.8</ele>
        <time>2019-08-05T17:24:03Z</time>
      </trkpt>
      <trkpt lat="59.365378814675" lon="18.080815592866">
        <ele>42.4</ele>
        <time>2019-08-05T17:24:11Z</time>
      </trkpt>
      <trkpt lat="59.365238585488" lon="18.081080712363">
        <ele>44</ele>
        <time>2019-08-05T17:24:19Z</time>
      </trkpt>
      <trkpt lat="59.365083268881" lon="18.081333510467">
        <ele>45.2</ele>
        <time>2019-08-05T17:24:27Z</time>
      </trkpt>
      <trkpt lat="59.364925270066" lon="18.081616902506">
        <ele>46.4</ele>
        <time>2019-08-05T17:24:34Z</time>
      </trkpt>
      <trkpt lat="59.364854107735" lon="18.08187808251">
        <ele>46.4</ele>
        <time>2019-08-05T17:24:40Z</time>
      </trkpt>
      <trkpt lat="59.364759056989" lon="18.081892080283">
        <ele>45.8</ele>
        <time>2019-08-05T17:24:44Z</time>
      </trkpt>
      <trkpt lat="59.364557053199" lon="18.081806333446">
        <ele>46.6</ele>
        <time>2019-08-05T17:24:52Z</time>
      </trkpt>
      <trkpt lat="59.364367454621" lon="18.081717820582">
        <ele>45.8</ele>
        <time>2019-08-05T17:24:59Z</time>
      </trkpt>
      <trkpt lat="59.364179197147" lon="18.081680521127">
        <ele>43.4</ele>
        <time>2019-08-05T17:25:06Z</time>
      </trkpt>
      <trkpt lat="59.364005943274" lon="18.081566778744">
        <ele>41.6</ele>
        <time>2019-08-05T17:25:13Z</time>
      </trkpt>
      <trkpt lat="59.363863534793" lon="18.081456808216">
        <ele>39.2</ele>
        <time>2019-08-05T17:25:18Z</time>
      </trkpt>
      <trkpt lat="59.363762616717" lon="18.08142965086">
        <ele>38.8</ele>
        <time>2019-08-05T17:25:22Z</time>
      </trkpt>
      <trkpt lat="59.363579220745" lon="18.081413976707">
        <ele>36.8</ele>
        <time>2019-08-05T17:25:28Z</time>
      </trkpt>
      <trkpt lat="59.363373612738" lon="18.081407522644">
        <ele>35.6</ele>
        <time>2019-08-05T17:25:35Z</time>
      </trkpt>
      <trkpt lat="59.363187534558" lon="18.081349268439">
        <ele>33.6</ele>
        <time>2019-08-05T17:25:41Z</time>
      </trkpt>
      <trkpt lat="59.363051915416" lon="18.081118850008">
        <ele>33</ele>
        <time>2019-08-05T17:25:47Z</time>
      </trkpt>
      <trkpt lat="59.362950745883" lon="18.080790195709">
        <ele>25.2</ele>
        <time>2019-08-05T17:25:53Z</time>
      </trkpt>
      <trkpt lat="59.362895090067" lon="18.080439916108">
        <ele>19.8</ele>
        <time>2019-08-05T17:26:00Z</time>
      </trkpt>
      <trkpt lat="59.362959295421" lon="18.080087624851">
        <ele>21.2</ele>
        <time>2019-08-05T17:26:08Z</time>
      </trkpt>
      <trkpt lat="59.363104218472" lon="18.079809094314">
        <ele>15.2</ele>
        <time>2019-08-05T17:26:16Z</time>
      </trkpt>
      <trkpt lat="59.363258864527" lon="18.079621255935">
        <ele>13</ele>
        <time>2019-08-05T17:26:24Z</time>
      </trkpt>
      <trkpt lat="59.363405966872" lon="18.079404416182">
        <ele>12.4</ele>
        <time>2019-08-05T17:26:31Z</time>
      </trkpt>
      <trkpt lat="59.363550638466" lon="18.079181122366">
        <ele>9.6</ele>
        <time>2019-08-05T17:26:38Z</time>
      </trkpt>
      <trkpt lat="59.363724898167" lon="18.078997139661">
        <ele>4.2</ele>
        <time>2019-08-05T17:26:47Z</time>
      </trkpt>
      <trkpt lat="59.363768400228" lon="18.078943746958">
        <ele>3.6</ele>
        <time>2019-08-05T17:26:49Z</time>
      </trkpt>
      <trkpt lat="59.3639015048" lon="18.078687344637">
        <ele>0.4</ele>
        <time>2019-08-05T17:26:57Z</time>
      </trkpt>
      <trkpt lat="59.363947856707" lon="18.078590868968">
        <ele>0.2</ele>
        <time>2019-08-05T17:27:00Z</time>
      </trkpt>
      <trkpt lat="59.364020108685" lon="18.078209408699">
        <ele>2.2</ele>
        <time>2019-08-05T17:27:08Z</time>
      </trkpt>
      <trkpt lat="59.364096048699" lon="18.077855692519">
        <ele>3.6</ele>
        <time>2019-08-05T17:27:16Z</time>
      </trkpt>
      <trkpt lat="59.364175006197" lon="18.077536677405">
        <ele>5.6</ele>
        <time>2019-08-05T17:27:23Z</time>
      </trkpt>
      <trkpt lat="59.364335016668" lon="18.077063686788">
        <ele>1.8</ele>
        <time>2019-08-05T17:27:34Z</time>
      </trkpt>
      <trkpt lat="59.364501984116" lon="18.076846260302">
        <ele>0</ele>
        <time>2019-08-05T17:27:41Z</time>
      </trkpt>
      <trkpt lat="59.364658977103" lon="18.076621457744">
        <ele>0</ele>
        <time>2019-08-05T17:27:48Z</time>
      </trkpt>
      <trkpt lat="59.364854191554" lon="18.076566975394">
        <ele>1.4</ele>
        <time>2019-08-05T17:27:56Z</time>
      </trkpt>
      <trkpt lat="59.365049489824" lon="18.07659497094">
        <ele>3.4</ele>
        <time>2019-08-05T17:28:03Z</time>
      </trkpt>
      <trkpt lat="59.365236070918" lon="18.076473936304">
        <ele>3.2</ele>
        <time>2019-08-05T17:28:10Z</time>
      </trkpt>
      <trkpt lat="59.365401948719" lon="18.07622449096">
        <ele>4.6</ele>
        <time>2019-08-05T17:28:17Z</time>
      </trkpt>
      <trkpt lat="59.365591463478" lon="18.076105719437">
        <ele>4.6</ele>
        <time>2019-08-05T17:28:24Z</time>
      </trkpt>
      <trkpt lat="59.365800172788" lon="18.076074790226">
        <ele>6.6</ele>
        <time>2019-08-05T17:28:31Z</time>
      </trkpt>
      <trkpt lat="59.365954567386" lon="18.076302526449">
        <ele>8.2</ele>
        <time>2019-08-05T17:28:37Z</time>
      </trkpt>
      <trkpt lat="59.366060933697" lon="18.076592372551">
        <ele>11.6</ele>
        <time>2019-08-05T17:28:43Z</time>
      </trkpt>
      <trkpt lat="59.366137544263" lon="18.076953548622">
        <ele>12.6</ele>
        <time>2019-08-05T17:28:50Z</time>
      </trkpt>
      <trkpt lat="59.366131006381" lon="18.077310952838">
        <ele>12.8</ele>
        <time>2019-08-05T17:28:56Z</time>
      </trkpt>
      <trkpt lat="59.366096808229" lon="18.077656287118">
        <ele>13.8</ele>
        <time>2019-08-05T17:29:02Z</time>
      </trkpt>
      <trkpt lat="59.366038470205" lon="18.078023665795">
        <ele>15.6</ele>
        <time>2019-08-05T17:29:09Z</time>
      </trkpt>
      <trkpt lat="59.365959345069" lon="18.078371514645">
        <ele>16.2</ele>
        <time>2019-08-05T17:29:16Z</time>
      </trkpt>
      <trkpt lat="59.365896816095" lon="18.07868374042">
        <ele>16.6</ele>
        <time>2019-08-05T17:29:23Z</time>
      </trkpt>
      <trkpt lat="59.366017012541" lon="18.078637388513">
        <ele>17.8</ele>
        <time>2019-08-05T17:29:29Z</time>
      </trkpt>
      <trkpt lat="59.366144752697" lon="18.078346201307">
        <ele>12.8</ele>
        <time>2019-08-05T17:29:37Z</time>
      </trkpt>
      <trkpt lat="59.366311971602" lon="18.078186777569">
        <ele>11.2</ele>
        <time>2019-08-05T17:29:44Z</time>
      </trkpt>
      <trkpt lat="59.366490506072" lon="18.078081752362">
        <ele>13.6</ele>
        <time>2019-08-05T17:29:51Z</time>
      </trkpt>
      <trkpt lat="59.366670381646" lon="18.077899026942">
        <ele>11.8</ele>
        <time>2019-08-05T17:29:59Z</time>
      </trkpt>
      <trkpt lat="59.366812287213" lon="18.077675649307">
        <ele>10</ele>
        <time>2019-08-05T17:30:06Z</time>
      </trkpt>
      <trkpt lat="59.366956791169" lon="18.077460485934">
        <ele>8.2</ele>
        <time>2019-08-05T17:30:12Z</time>
      </trkpt>
      <trkpt lat="59.367112443052" lon="18.077257392497">
        <ele>6.8</ele>
        <time>2019-08-05T17:30:18Z</time>
      </trkpt>
      <trkpt lat="59.36725929394" lon="18.077044911332">
        <ele>6.2</ele>
        <time>2019-08-05T17:30:25Z</time>
      </trkpt>
      <trkpt lat="59.367408407941" lon="18.076820360231">
        <ele>2.8</ele>
        <time>2019-08-05T17:30:32Z</time>
      </trkpt>
      <trkpt lat="59.36754427854" lon="18.076553815811">
        <ele>2</ele>
        <time>2019-08-05T17:30:39Z</time>
      </trkpt>
      <trkpt lat="59.367617117251" lon="18.07618425784">
        <ele>1.6</ele>
        <time>2019-08-05T17:30:47Z</time>
      </trkpt>
      <trkpt lat="59.367586020402" lon="18.075758373501">
        <ele>0.4</ele>
        <time>2019-08-05T17:30:54Z</time>
      </trkpt>
      <trkpt lat="59.367524078161" lon="18.075386720055">
        <ele>2.8</ele>
        <time>2019-08-05T17:31:00Z</time>
      </trkpt>
      <trkpt lat="59.367399439308" lon="18.075086983311">
        <ele>5</ele>
        <time>2019-08-05T17:31:07Z</time>
      </trkpt>
      <trkpt lat="59.36726097032" lon="18.074833179379">
        <ele>6.4</ele>
        <time>2019-08-05T17:31:14Z</time>
      </trkpt>
      <trkpt lat="59.367250828221" lon="18.074786911291">
        <ele>6.6</ele>
        <time>2019-08-05T17:31:15Z</time>
      </trkpt>
      <trkpt lat="59.367325343312" lon="18.074520869785">
        <ele>7.2</ele>
        <time>2019-08-05T17:31:21Z</time>
      </trkpt>
      <trkpt lat="59.367500105927" lon="18.074329846284">
        <ele>7.2</ele>
        <time>2019-08-05T17:31:29Z</time>
      </trkpt>
      <trkpt lat="59.36765072867" lon="18.074086435908">
        <ele>7.6</ele>
        <time>2019-08-05T17:31:37Z</time>
      </trkpt>
      <trkpt lat="59.367852481003" lon="18.074006724039">
        <ele>6.6</ele>
        <time>2019-08-05T17:31:45Z</time>
      </trkpt>
      <trkpt lat="59.368000924452" lon="18.07376440331">
        <ele>2.6</ele>
        <time>2019-08-05T17:31:52Z</time>
      </trkpt>
      <trkpt lat="59.368058591924" lon="18.073396773176">
        <ele>0.6</ele>
        <time>2019-08-05T17:31:59Z</time>
      </trkpt>
      <trkpt lat="59.368112822817" lon="18.073043392272">
        <ele>0.2</ele>
        <time>2019-08-05T17:32:06Z</time>
      </trkpt>
      <trkpt lat="59.368165712606" lon="18.072663356926">
        <ele>1.4</ele>
        <time>2019-08-05T17:32:13Z</time>
      </trkpt>
      <trkpt lat="59.368207370649" lon="18.07229673262">
        <ele>3</ele>
        <time>2019-08-05T17:32:20Z</time>
      </trkpt>
      <trkpt lat="59.368274509668" lon="18.071945950105">
        <ele>3.4</ele>
        <time>2019-08-05T17:32:27Z</time>
      </trkpt>
      <trkpt lat="59.368355311184" lon="18.071615954702">
        <ele>5.6</ele>
        <time>2019-08-05T17:32:36Z</time>
      </trkpt>
      <trkpt lat="59.368400741082" lon="18.071262825255">
        <ele>7.8</ele>
        <time>2019-08-05T17:32:45Z</time>
      </trkpt>
      <trkpt lat="59.368502581167" lon="18.070963759063">
        <ele>8</ele>
        <time>2019-08-05T17:32:51Z</time>
      </trkpt>
      <trkpt lat="59.368784213007" lon="18.070506610237">
        <ele>4.8</ele>
        <time>2019-08-05T17:33:03Z</time>
      </trkpt>
      <trkpt lat="59.368946738048" lon="18.070263618956">
        <ele>1</ele>
        <time>2019-08-05T17:33:09Z</time>
      </trkpt>
      <trkpt lat="59.369145305259" lon="18.070090113626">
        <ele>0</ele>
        <time>2019-08-05T17:33:17Z</time>
      </trkpt>
      <trkpt lat="59.36930447754" lon="18.069894312442">
        <ele>0</ele>
        <time>2019-08-05T17:33:24Z</time>
      </trkpt>
      <trkpt lat="59.369479156336" lon="18.069706809339">
        <ele>0</ele>
        <time>2019-08-05T17:33:31Z</time>
      </trkpt>
      <trkpt lat="59.369658445177" lon="18.069612429145">
        <ele>0</ele>
        <time>2019-08-05T17:33:38Z</time>
      </trkpt>
      <trkpt lat="59.369820551123" lon="18.069444120593">
        <ele>0</ele>
        <time>2019-08-05T17:33:45Z</time>
      </trkpt>
      <trkpt lat="59.369878553871" lon="18.069335323531">
        <ele>0</ele>
        <time>2019-08-05T17:33:49Z</time>
      </trkpt>
      <trkpt lat="59.369905040675" lon="18.069219653311">
        <ele>0</ele>
        <time>2019-08-05T17:33:53Z</time>
      </trkpt>
      <trkpt lat="59.369931778936" lon="18.069113622276">
        <ele>0</ele>
        <time>2019-08-05T17:33:56Z</time>
      </trkpt>
      <trkpt lat="59.370004952923" lon="18.068745656866">
        <ele>0</ele>
        <time>2019-08-05T17:34:03Z</time>
      </trkpt>
      <trkpt lat="59.370007383674" lon="18.068698969683">
        <ele>0</ele>
        <time>2019-08-05T17:34:04Z</time>
      </trkpt>
      <trkpt lat="59.369949548564" lon="18.068334524671">
        <ele>0</ele>
        <time>2019-08-05T17:34:11Z</time>
      </trkpt>
      <trkpt lat="59.369834632715" lon="18.068035207022">
        <ele>0</ele>
        <time>2019-08-05T17:34:17Z</time>
      </trkpt>
      <trkpt lat="59.369677639728" lon="18.067863126615">
        <ele>0</ele>
        <time>2019-08-05T17:34:23Z</time>
      </trkpt>
      <trkpt lat="59.369489046978" lon="18.067737146658">
        <ele>0</ele>
        <time>2019-08-05T17:34:29Z</time>
      </trkpt>
      <trkpt lat="59.369327192489" lon="18.067576297997">
        <ele>0</ele>
        <time>2019-08-05T17:34:35Z</time>
      </trkpt>
      <trkpt lat="59.36916366162" lon="18.067410168739">
        <ele>0</ele>
        <time>2019-08-05T17:34:41Z</time>
      </trkpt>
      <trkpt lat="59.368984624236" lon="18.067252086105">
        <ele>0</ele>
        <time>2019-08-05T17:34:48Z</time>
      </trkpt>
      <trkpt lat="59.36881832734" lon="18.067037844741">
        <ele>0</ele>
        <time>2019-08-05T17:34:55Z</time>
      </trkpt>
      <trkpt lat="59.368674410117" lon="18.06674456206">
        <ele>2.2</ele>
        <time>2019-08-05T17:35:02Z</time>
      </trkpt>
      <trkpt lat="59.368541640821" lon="18.066454296863">
        <ele>5.8</ele>
        <time>2019-08-05T17:35:09Z</time>
      </trkpt>
      <trkpt lat="59.368525379935" lon="18.066358743203">
        <ele>6.6</ele>
        <time>2019-08-05T17:35:11Z</time>
      </trkpt>
      <trkpt lat="59.368582628312" lon="18.066204097148">
        <ele>11.2</ele>
        <time>2019-08-05T17:35:17Z</time>
      </trkpt>
      <trkpt lat="59.368706512794" lon="18.065950544673">
        <ele>13.6</ele>
        <time>2019-08-05T17:35:25Z</time>
      </trkpt>
      <trkpt lat="59.368725455888" lon="18.065557936477">
        <ele>13</ele>
        <time>2019-08-05T17:35:33Z</time>
      </trkpt>
      <trkpt lat="59.368760324592" lon="18.065198352967">
        <ele>11.8</ele>
        <time>2019-08-05T17:35:39Z</time>
      </trkpt>
      <trkpt lat="59.368828720896" lon="18.064873051428">
        <ele>11.8</ele>
        <time>2019-08-05T17:35:45Z</time>
      </trkpt>
      <trkpt lat="59.368912456077" lon="18.064557305255">
        <ele>12.6</ele>
        <time>2019-08-05T17:35:51Z</time>
      </trkpt>
      <trkpt lat="59.368997113267" lon="18.06423585939">
        <ele>12.8</ele>
        <time>2019-08-05T17:35:58Z</time>
      </trkpt>
      <trkpt lat="59.369086045226" lon="18.063899326105">
        <ele>13.4</ele>
        <time>2019-08-05T17:36:05Z</time>
      </trkpt>
      <trkpt lat="59.369172294977" lon="18.063543765907">
        <ele>13.8</ele>
        <time>2019-08-05T17:36:12Z</time>
      </trkpt>
      <trkpt lat="59.369229962449" lon="18.06316465257">
        <ele>9.6</ele>
        <time>2019-08-05T17:36:19Z</time>
      </trkpt>
      <trkpt lat="59.369305734825" lon="18.062802973585">
        <ele>4.2</ele>
        <time>2019-08-05T17:36:26Z</time>
      </trkpt>
      <trkpt lat="59.369369185808" lon="18.062434421442">
        <ele>1.2</ele>
        <time>2019-08-05T17:36:33Z</time>
      </trkpt>
      <trkpt lat="59.36942266233" lon="18.062043489626">
        <ele>0</ele>
        <time>2019-08-05T17:36:40Z</time>
      </trkpt>
      <trkpt lat="59.36948049744" lon="18.061690863093">
        <ele>0</ele>
        <time>2019-08-05T17:36:47Z</time>
      </trkpt>
      <trkpt lat="59.369474211015" lon="18.061342678967">
        <ele>0</ele>
        <time>2019-08-05T17:36:53Z</time>
      </trkpt>
      <trkpt lat="59.3694251769" lon="18.060983430733">
        <ele>0</ele>
        <time>2019-08-05T17:36:59Z</time>
      </trkpt>
      <trkpt lat="59.36936231265" lon="18.060802046417">
        <ele>0</ele>
        <time>2019-08-05T17:37:03Z</time>
      </trkpt>
      <trkpt lat="59.369430708954" lon="18.060544135354">
        <ele>0</ele>
        <time>2019-08-05T17:37:08Z</time>
      </trkpt>
      <trkpt lat="59.369494243756" lon="18.060217325073">
        <ele>0</ele>
        <time>2019-08-05T17:37:14Z</time>
      </trkpt>
      <trkpt lat="59.369479323974" lon="18.059913648836">
        <ele>0</ele>
        <time>2019-08-05T17:37:19Z</time>
      </trkpt>
      <trkpt lat="59.369334484742" lon="18.059697144359">
        <ele>0</ele>
        <time>2019-08-05T17:37:25Z</time>
      </trkpt>
      <trkpt lat="59.369145472897" lon="18.059553646231">
        <ele>0</ele>
        <time>2019-08-05T17:37:32Z</time>
      </trkpt>
      <trkpt lat="59.368970542644" lon="18.059464714272">
        <ele>0</ele>
        <time>2019-08-05T17:37:38Z</time>
      </trkpt>
      <trkpt lat="59.368798629875" lon="18.059346194206">
        <ele>0</ele>
        <time>2019-08-05T17:37:44Z</time>
      </trkpt>
      <trkpt lat="59.368619089577" lon="18.059281485938">
        <ele>1.8</ele>
        <time>2019-08-05T17:37:50Z</time>
      </trkpt>
      <trkpt lat="59.368439046365" lon="18.059185513183">
        <ele>3.4</ele>
        <time>2019-08-05T17:37:56Z</time>
      </trkpt>
      <trkpt lat="59.368247855226" lon="18.059099011975">
        <ele>4.8</ele>
        <time>2019-08-05T17:38:02Z</time>
      </trkpt>
      <trkpt lat="59.368084994909" lon="18.058902288782">
        <ele>6</ele>
        <time>2019-08-05T17:38:08Z</time>
      </trkpt>
      <trkpt lat="59.367970162879" lon="18.058698860069">
        <ele>9</ele>
        <time>2019-08-05T17:38:13Z</time>
      </trkpt>
    </trkseg>
  </trk>
</gpx>